Time;durP1;ratioP1;P1;durP2;ratioP2;P2;SDS_P1;SDS_P2;PMS_P1;PMS_P2;Temp;Humidity;BMP_temperature;BMP_pressure;BME280_temperature;BME280_humidity;BME280_pressure;Samples;Min_cycle;Max_cycle;Signal;HPM_P1;HPM_P2
2022/05/25 00:00:18;;;;;;;;;;;16.60;47.70;;;;;;5088851;28;19912;-58
2022/05/25 00:02:45;;;;;;;;;;;16.60;47.60;;;;;;5091809;28;19907;-58
2022/05/25 00:05:11;;;;;;;;;;;16.60;47.80;;;;;;5089816;28;19961;-59
2022/05/25 00:07:37;;;;;;;;;;;16.50;47.60;;;;;;5090438;28;20379;-59
2022/05/25 00:10:03;;;;;;;;;;;16.50;47.60;;;;;;5090261;28;19908;-58
2022/05/25 00:12:28;;;;;;;;;;;16.40;47.60;;;;;;5089309;28;20318;-58
2022/05/25 00:14:54;;;;;;;;;;;16.40;47.50;;;;;;5080868;28;19908;-58
2022/05/25 00:17:20;;;;;;;;;;;16.40;47.70;;;;;;5074857;28;19905;-58
2022/05/25 00:20:00;;;;;;;;;;;16.40;47.70;;;;;;5074030;28;20000;-58
2022/05/25 00:22:38;;;;;;;;;;;16.40;47.80;;;;;;5077743;28;19904;-58
2022/05/25 00:25:05;;;;;;;;;;;16.30;47.60;;;;;;5088971;28;19999;-58
2022/05/25 00:27:30;;;;;;;;;;;16.30;47.50;;;;;;5094154;28;19911;-58
2022/05/25 00:29:56;;;;;;;;;;;16.30;47.60;;;;;;5094040;28;19904;-58
2022/05/25 00:32:22;;;;;;;;;;;16.30;47.60;;;;;;5093924;28;19908;-59
2022/05/25 00:34:48;;;;;;;;;;;16.20;47.70;;;;;;5094264;28;20355;-58
2022/05/25 00:37:13;;;;;;;;;;;16.30;47.90;;;;;;5094196;28;19908;-58
2022/05/25 00:39:40;;;;;;;;;;;16.20;47.90;;;;;;5089459;28;19957;-58
2022/05/25 00:42:06;;;;;;;;;;;16.20;48.10;;;;;;5092765;28;19912;-58
2022/05/25 00:44:31;;;;;;;;;;;16.10;48.10;;;;;;5090527;28;19916;-58
2022/05/25 00:46:57;;;;;;;;;;;16.10;48.10;;;;;;5073597;28;20295;-58
2022/05/25 00:49:23;;;;;;;;;;;16.10;48.20;;;;;;5083157;28;20271;-58
2022/05/25 00:51:51;;;;;;;;;;;16.00;48.30;;;;;;5093575;28;19914;-58
2022/05/25 00:54:26;;;;;;;;;;;16.00;48.30;;;;;;5092971;28;20637;-57
2022/05/25 00:56:53;;;;;;;;;;;15.90;48.40;;;;;;5079580;28;20271;-58
2022/05/25 00:59:22;;;;;;;;;;;15.90;48.50;;;;;;5093532;28;19908;-58
2022/05/25 01:01:48;;;;;;;;;;;15.90;48.40;;;;;;5093367;28;19911;-59
2022/05/25 01:04:15;;;;;;;;;;;15.80;48.50;;;;;;5091260;28;19904;-58
2022/05/25 01:06:58;;;;;;;;;;;15.80;48.40;;;;;;5073464;28;20352;-58
2022/05/25 01:09:42;;;;;;;;;;;15.80;48.30;;;;;;5091088;28;19911;-58
2022/05/25 01:12:13;;;;;;;;;;;15.80;48.30;;;;;;5093540;28;20356;-58
2022/05/25 01:14:57;;;;;;;;;;;15.80;48.30;;;;;;5080288;28;19904;-58
2022/05/25 01:17:22;;;;;;;;;;;15.80;48.30;;;;;;5091512;28;19904;-59
2022/05/25 01:20:00;;;;;;;;;;;15.80;48.30;;;;;;5072949;28;19954;-59
2022/05/25 01:22:43;;;;;;;;;;;15.80;48.40;;;;;;5072979;28;19904;-59
2022/05/25 01:25:15;;;;;;;;;;;15.80;48.70;;;;;;5072779;28;20007;-58
2022/05/25 01:27:45;;;;;;;;;;;15.80;48.60;;;;;;5072874;28;19905;-58
2022/05/25 01:30:13;;;;;;;;;;;15.80;48.80;;;;;;5073777;28;19975;-58
2022/05/25 01:32:42;;;;;;;;;;;15.70;48.70;;;;;;5090684;28;20000;-58
2022/05/25 01:35:14;;;;;;;;;;;15.70;48.90;;;;;;5084805;28;19904;-56
2022/05/25 01:38:08;;;;;;;;;;;15.70;48.90;;;;;;5072882;28;19905;-58
2022/05/25 01:40:52;;;;;;;;;;;15.60;48.80;;;;;;5080487;28;19908;-58
2022/05/25 01:43:23;;;;;;;;;;;15.60;48.80;;;;;;5072852;28;19904;-58
2022/05/25 01:45:52;;;;;;;;;;;15.60;48.90;;;;;;5072669;28;19905;-58
2022/05/25 01:48:19;;;;;;;;;;;15.60;48.80;;;;;;5083072;28;19916;-59
2022/05/25 01:50:53;;;;;;;;;;;15.50;48.80;;;;;;5092778;28;20356;-58
2022/05/25 01:53:20;;;;;;;;;;;15.60;48.90;;;;;;5092591;28;19908;-58
2022/05/25 01:55:49;;;;;;;;;;;15.50;48.90;;;;;;5106960;28;19904;-58
2022/05/25 01:58:16;;;;;;;;;;;15.50;48.90;;;;;;5092829;28;19927;-58
2022/05/25 02:00:44;;;;;;;;;;;15.50;48.90;;;;;;5092576;28;19904;-59
2022/05/25 02:06:13;;;;;;;;;;;15.60;48.90;;;;;;5096826;28;20276;-58
2022/05/25 02:08:58;;;;;;;;;;;15.50;48.70;;;;;;5096847;28;19904;-58
2022/05/25 02:11:23;;;;;;;;;;;15.60;49.00;;;;;;5096719;28;19904;-58
2022/05/25 02:13:49;;;;;;;;;;;15.60;49.00;;;;;;5096666;28;20252;-58
2022/05/25 02:16:16;;;;;;;;;;;15.60;49.10;;;;;;5096603;28;19904;-58
2022/05/25 02:18:51;;;;;;;;;;;15.60;49.10;;;;;;5084619;28;19961;-56
2022/05/25 02:21:17;;;;;;;;;;;15.60;49.10;;;;;;5076937;28;19908;-58
2022/05/25 02:23:45;;;;;;;;;;;15.60;49.10;;;;;;5088735;28;19904;-58
2022/05/25 02:26:13;;;;;;;;;;;15.60;49.20;;;;;;5096254;28;19916;-58
2022/05/25 02:28:59;;;;;;;;;;;15.60;49.10;;;;;;5096820;28;20365;-58
2022/05/25 02:31:27;;;;;;;;;;;15.70;49.30;;;;;;5073850;28;19991;-57
2022/05/25 02:33:55;;;;;;;;;;;15.70;49.10;;;;;;5072831;28;20019;-58
2022/05/25 02:36:21;;;;;;;;;;;15.70;49.20;;;;;;5073670;28;19911;-58
2022/05/25 02:38:46;;;;;;;;;;;15.70;49.20;;;;;;5073047;28;20006;-58
2022/05/25 02:41:26;;;;;;;;;;;15.80;49.30;;;;;;5053857;28;20292;-58
2022/05/25 02:43:52;;;;;;;;;;;15.80;49.40;;;;;;5053591;28;19905;-58
2022/05/25 02:46:17;;;;;;;;;;;15.90;49.30;;;;;;5058216;28;19966;-58
2022/05/25 02:48:43;;;;;;;;;;;15.90;49.30;;;;;;5073526;28;19905;-58
2022/05/25 02:51:09;;;;;;;;;;;16.00;49.20;;;;;;5073465;28;19915;-57
2022/05/25 02:53:35;;;;;;;;;;;16.00;49.00;;;;;;5073422;28;19908;-58
2022/05/25 02:56:01;;;;;;;;;;;16.00;49.00;;;;;;5069665;28;20288;-58
2022/05/25 02:58:27;;;;;;;;;;;16.10;48.80;;;;;;5053416;28;19908;-58
2022/05/25 03:00:53;;;;;;;;;;;16.10;49.00;;;;;;5068560;28;19912;-58
2022/05/25 03:03:19;;;;;;;;;;;16.10;48.80;;;;;;5074399;28;19908;-58
2022/05/25 03:05:44;;;;;;;;;;;16.20;48.80;;;;;;5080268;28;19904;-58
2022/05/25 03:08:10;;;;;;;;;;;16.20;48.90;;;;;;5075557;28;19949;-58
2022/05/25 03:10:35;;;;;;;;;;;16.30;49.00;;;;;;5075640;28;19905;-58
2022/05/25 03:13:03;;;;;;;;;;;16.30;49.10;;;;;;5082204;28;19912;-58
2022/05/25 03:15:29;;;;;;;;;;;16.40;49.30;;;;;;5095545;28;19904;-58
2022/05/25 03:17:54;;;;;;;;;;;16.50;49.20;;;;;;5088725;28;20018;-58
2022/05/25 03:20:20;;;;;;;;;;;16.60;49.50;;;;;;5075231;28;19915;-58
2022/05/25 03:22:45;;;;;;;;;;;16.70;49.60;;;;;;5057169;28;19911;-58
2022/05/25 03:25:11;;;;;;;;;;;16.80;49.80;;;;;;5075207;28;19963;-58
2022/05/25 03:27:37;;;;;;;;;;;17.00;49.90;;;;;;5075133;28;19953;-58
2022/05/25 03:30:04;;;;;;;;;;;17.10;49.90;;;;;;5075907;28;20356;-58
2022/05/25 03:32:29;;;;;;;;;;;17.30;50.20;;;;;;5092550;28;19912;-58
2022/05/25 03:34:55;;;;;;;;;;;17.50;50.40;;;;;;5084339;28;20292;-57
2022/05/25 03:37:20;;;;;;;;;;;17.80;50.90;;;;;;5074895;28;20326;-57
2022/05/25 03:39:46;;;;;;;;;;;18.20;51.20;;;;;;5074940;28;20583;-59
2022/05/25 03:42:13;;;;;;;;;;;18.70;51.30;;;;;;5074696;28;19954;-58
2022/05/25 03:44:39;;;;;;;;;;;19.40;51.30;;;;;;5075287;28;20413;-58
2022/05/25 03:47:04;;;;;;;;;;;20.10;51.10;;;;;;5094238;28;19908;-59
2022/05/25 03:49:30;;;;;;;;;;;21.10;50.70;;;;;;5094904;28;20006;-56
2022/05/25 03:51:56;;;;;;;;;;;22.10;50.10;;;;;;5094648;28;19908;-58
2022/05/25 03:54:21;;;;;;;;;;;23.30;49.40;;;;;;5094784;28;19908;-59
2022/05/25 03:56:47;;;;;;;;;;;24.40;48.40;;;;;;5094993;28;19930;-58
2022/05/25 03:59:12;;;;;;;;;;;25.40;47.50;;;;;;5094652;28;19921;-55
2022/05/25 04:01:38;;;;;;;;;;;26.30;46.60;;;;;;5094523;28;19904;-56
2022/05/25 04:04:04;;;;;;;;;;;27.20;46.80;;;;;;5089594;28;19931;-56
2022/05/25 04:06:29;;;;;;;;;;;28.00;45.50;;;;;;5094664;28;19908;-55
2022/05/25 04:08:55;;;;;;;;;;;28.80;44.80;;;;;;5094411;28;20391;-56
2022/05/25 04:11:21;;;;;;;;;;;29.50;44.40;;;;;;5094685;28;20257;-57
2022/05/25 04:13:46;;;;;;;;;;;30.30;43.80;;;;;;5094460;28;19919;-56
2022/05/25 04:16:12;;;;;;;;;;;31.00;43.40;;;;;;5094461;28;19927;-57
2022/05/25 04:18:38;;;;;;;;;;;31.60;43.20;;;;;;5080290;28;19908;-56
2022/05/25 04:21:03;;;;;;;;;;;32.20;42.60;;;;;;5084724;28;19908;-56
2022/05/25 04:23:29;;;;;;;;;;;32.90;42.30;;;;;;5089417;28;19904;-56
2022/05/25 04:25:55;;;;;;;;;;;33.40;41.90;;;;;;5075805;28;19976;-57
2022/05/25 04:28:20;;;;;;;;;;;33.90;41.60;;;;;;5094091;28;19912;-57
2022/05/25 04:30:46;;;;;;;;;;;34.40;41.20;;;;;;5094166;28;20487;-58
2022/05/25 04:33:12;;;;;;;;;;;34.70;41.20;;;;;;5091304;28;20421;-58
2022/05/25 04:35:38;;;;;;;;;;;35.00;41.00;;;;;;5085968;28;19911;-57
2022/05/25 04:38:06;;;;;;;;;;;35.40;41.00;;;;;;5075368;28;20341;-58
2022/05/25 04:40:33;;;;;;;;;;;35.60;40.90;;;;;;5094172;28;20001;-58
2022/05/25 04:43:09;;;;;;;;;;;35.80;40.80;;;;;;5093768;28;19957;-58
2022/05/25 04:45:37;;;;;;;;;;;36.00;40.70;;;;;;5094090;28;20280;-58
2022/05/25 04:48:03;;;;;;;;;;;36.20;40.40;;;;;;5093811;28;19912;-58
2022/05/25 04:50:31;;;;;;;;;;;36.30;40.50;;;;;;5093881;28;20352;-58
2022/05/25 04:52:59;;;;;;;;;;;36.50;40.30;;;;;;5093778;28;20276;-56
2022/05/25 04:58:17;;;;;;;;;;;36.80;39.90;;;;;;5093878;28;19995;-58
2022/05/25 05:00:42;;;;;;;;;;;36.90;39.80;;;;;;5093306;28;19910;-57
2022/05/25 05:03:08;;;;;;;;;;;37.00;39.60;;;;;;5087499;28;20002;-57
2022/05/25 05:05:33;;;;;;;;;;;37.10;39.50;;;;;;5073255;28;20006;-57
2022/05/25 05:07:59;;;;;;;;;;;37.20;39.40;;;;;;5077819;28;19987;-58
2022/05/25 05:10:25;;;;;;;;;;;37.30;39.40;;;;;;5086912;28;19904;-57
2022/05/25 05:12:50;;;;;;;;;;;37.40;39.30;;;;;;5086468;28;20037;-57
2022/05/25 05:15:16;;;;;;;;;;;37.50;38.90;;;;;;5072865;28;20034;-58
2022/05/25 05:17:41;;;;;;;;;;;37.60;38.70;;;;;;5082536;28;20028;-57
2022/05/25 05:20:07;;;;;;;;;;;37.50;38.40;;;;;;5082088;28;19909;-58
2022/05/25 05:22:34;;;;;;;;;;;37.40;38.00;;;;;;5090483;28;19908;-57
2022/05/25 05:24:59;;;;;;;;;;;37.00;37.70;;;;;;5091023;28;19911;-58
2022/05/25 05:27:25;;;;;;;;;;;36.20;37.80;;;;;;5088896;28;19908;-57
2022/05/25 05:29:51;;;;;;;;;;;35.20;37.90;;;;;;5082463;28;19904;-58
2022/05/25 05:32:17;;;;;;;;;;;34.20;38.30;;;;;;5091790;28;19965;-57
2022/05/25 05:34:42;;;;;;;;;;;33.10;38.90;;;;;;5086494;28;19965;-56
2022/05/25 05:37:23;;;;;;;;;;;32.10;39.30;;;;;;5092884;28;20314;-57
2022/05/25 05:39:51;;;;;;;;;;;31.20;39.70;;;;;;5089565;28;19919;-56
2022/05/25 05:42:18;;;;;;;;;;;30.30;40.20;;;;;;5091727;28;19919;-57
2022/05/25 05:44:45;;;;;;;;;;;29.50;40.60;;;;;;5084722;28;19957;-57
2022/05/25 05:47:14;;;;;;;;;;;28.80;41.00;;;;;;5086712;28;20348;-56
2022/05/25 05:49:39;;;;;;;;;;;28.10;41.50;;;;;;5092980;28;19939;-58
2022/05/25 05:52:05;;;;;;;;;;;27.60;41.90;;;;;;5092780;28;19939;-57
2022/05/25 05:54:31;;;;;;;;;;;27.10;42.10;;;;;;5091272;28;19904;-58
2022/05/25 05:56:57;;;;;;;;;;;26.70;42.50;;;;;;5091406;28;20352;-57
2022/05/25 05:59:22;;;;;;;;;;;26.20;42.70;;;;;;5100015;28;19938;-57
2022/05/25 06:01:48;;;;;;;;;;;25.90;43.00;;;;;;5084554;28;19912;-57
2022/05/25 06:04:13;;;;;;;;;;;25.60;43.30;;;;;;5082331;28;19940;-57
2022/05/25 06:06:39;;;;;;;;;;;25.30;43.30;;;;;;5081043;28;19998;-57
2022/05/25 06:09:06;;;;;;;;;;;25.00;43.50;;;;;;5087633;28;19912;-58
2022/05/25 06:11:32;;;;;;;;;;;24.90;43.80;;;;;;5086537;28;20360;-57
2022/05/25 06:13:58;;;;;;;;;;;24.70;44.00;;;;;;5080184;28;19931;-57
2022/05/25 06:19:26;;;;;;;;;;;24.40;44.00;;;;;;5080617;28;20485;-57
2022/05/25 06:22:02;;;;;;;;;;;24.20;44.00;;;;;;5075139;28;19912;-57
2022/05/25 06:24:28;;;;;;;;;;;24.10;44.40;;;;;;5076213;28;19912;-58
2022/05/25 06:26:54;;;;;;;;;;;24.00;44.70;;;;;;5073898;28;19969;-58
2022/05/25 06:29:20;;;;;;;;;;;23.90;45.00;;;;;;5079642;28;20321;-57
2022/05/25 06:31:47;;;;;;;;;;;23.80;45.30;;;;;;5084485;28;19915;-58
2022/05/25 06:34:12;;;;;;;;;;;23.70;45.70;;;;;;5077912;28;19908;-57
2022/05/25 06:36:38;;;;;;;;;;;23.70;45.30;;;;;;5080367;28;20003;-58
2022/05/25 06:39:03;;;;;;;;;;;23.60;44.70;;;;;;5077985;28;19912;-58
2022/05/25 06:41:29;;;;;;;;;;;23.60;45.10;;;;;;5070298;28;19968;-57
2022/05/25 06:43:55;;;;;;;;;;;23.50;45.30;;;;;;5076822;28;19908;-55
2022/05/25 06:46:21;;;;;;;;;;;23.50;45.60;;;;;;5069698;28;20003;-58
2022/05/25 06:48:48;;;;;;;;;;;23.50;45.30;;;;;;5081696;28;19919;-58
2022/05/25 06:51:15;;;;;;;;;;;23.40;45.20;;;;;;5078999;28;20379;-57
2022/05/25 06:53:40;;;;;;;;;;;23.30;45.10;;;;;;5078714;28;19923;-58
2022/05/25 06:56:06;;;;;;;;;;;23.30;44.80;;;;;;5086036;28;20398;-58
2022/05/25 06:58:32;;;;;;;;;;;23.20;44.70;;;;;;5078957;28;19908;-58
2022/05/25 07:00:58;;;;;;;;;;;23.20;44.70;;;;;;5081332;28;19911;-58
2022/05/25 07:03:23;;;;;;;;;;;23.20;44.60;;;;;;5077702;28;19934;-58
2022/05/25 07:05:49;;;;;;;;;;;23.10;44.60;;;;;;5080651;28;19965;-58
2022/05/25 07:08:14;;;;;;;;;;;23.00;44.50;;;;;;5078271;28;19915;-58
2022/05/25 07:10:45;;;;;;;;;;;23.00;44.50;;;;;;5080561;28;19922;-58
2022/05/25 07:13:14;;;;;;;;;;;23.00;44.70;;;;;;5079174;28;19919;-58
2022/05/25 07:15:40;;;;;;;;;;;22.90;44.90;;;;;;5061230;28;19911;-58
2022/05/25 07:18:06;;;;;;;;;;;22.90;45.10;;;;;;5080357;28;19916;-58
2022/05/25 07:20:31;;;;;;;;;;;22.90;45.20;;;;;;5076930;28;19915;-58
2022/05/25 07:22:57;;;;;;;;;;;22.80;45.30;;;;;;5078385;28;19977;-57
2022/05/25 07:25:22;;;;;;;;;;;22.80;45.10;;;;;;5078359;28;19919;-58
2022/05/25 07:27:48;;;;;;;;;;;22.80;45.50;;;;;;5078217;28;19981;-58
2022/05/25 07:30:16;;;;;;;;;;;22.80;45.90;;;;;;5076087;28;19916;-57
2022/05/25 07:32:42;;;;;;;;;;;22.70;45.80;;;;;;5081036;28;20434;-57
2022/05/25 07:35:07;;;;;;;;;;;22.70;46.20;;;;;;5079780;28;19908;-58
2022/05/25 07:37:37;;;;;;;;;;;22.70;46.10;;;;;;5079083;28;19908;-57
2022/05/25 07:40:14;;;;;;;;;;;22.70;45.70;;;;;;5077307;28;19912;-56
2022/05/25 07:42:41;;;;;;;;;;;22.80;45.90;;;;;;5071559;28;19916;-57
2022/05/25 07:45:07;;;;;;;;;;;22.80;45.80;;;;;;5081496;28;19912;-57
2022/05/25 07:47:33;;;;;;;;;;;22.80;45.90;;;;;;5073831;28;19942;-58
2022/05/25 07:49:58;;;;;;;;;;;22.80;45.70;;;;;;5077882;28;19981;-58
2022/05/25 07:52:25;;;;;;;;;;;22.80;45.70;;;;;;5083410;28;19926;-58
2022/05/25 07:54:51;;;;;;;;;;;22.80;45.70;;;;;;5080814;28;19957;-57
2022/05/25 07:57:16;;;;;;;;;;;22.80;45.40;;;;;;5084356;28;19920;-57
2022/05/25 07:59:42;;;;;;;;;;;22.80;45.40;;;;;;5085685;28;19972;-57
2022/05/25 08:07:44;;;;;;;;;;;22.80;45.40;;;;;;5077185;28;19922;-57
2022/05/25 08:10:14;;;;;;;;;;;22.80;45.40;;;;;;5073922;28;19931;-56
2022/05/25 08:12:40;;;;;;;;;;;22.80;45.40;;;;;;5072496;28;20294;-57
2022/05/25 08:15:08;;;;;;;;;;;22.80;45.10;;;;;;5078847;28;20384;-58
2022/05/25 08:17:34;;;;;;;;;;;22.80;44.90;;;;;;5078198;28;19907;-57
2022/05/25 08:20:00;;;;;;;;;;;22.80;44.80;;;;;;5077880;28;20387;-57
2022/05/25 08:22:25;;;;;;;;;;;22.70;44.40;;;;;;5070864;28;20048;-58
2022/05/25 08:24:51;;;;;;;;;;;22.70;44.30;;;;;;5081646;28;19908;-57
2022/05/25 08:27:18;;;;;;;;;;;22.70;44.20;;;;;;5072632;28;19927;-58
2022/05/25 08:29:44;;;;;;;;;;;22.70;44.10;;;;;;5072561;28;19931;-57
2022/05/25 08:32:10;;;;;;;;;;;22.60;43.80;;;;;;5071491;28;20272;-57
2022/05/25 08:34:36;;;;;;;;;;;22.60;43.30;;;;;;5069188;28;19908;-57
2022/05/25 08:37:02;;;;;;;;;;;22.50;43.20;;;;;;5069206;28;19924;-57
2022/05/25 08:39:28;;;;;;;;;;;22.50;42.70;;;;;;5071299;28;20421;-57
2022/05/25 08:41:55;;;;;;;;;;;22.40;43.00;;;;;;5075053;28;19917;-57
2022/05/25 08:44:23;;;;;;;;;;;22.40;43.10;;;;;;5071684;28;19908;-56
2022/05/25 08:46:52;;;;;;;;;;;22.40;43.60;;;;;;5069101;28;20371;-57
2022/05/25 08:49:18;;;;;;;;;;;22.40;44.20;;;;;;5067718;28;19965;-58
2022/05/25 08:51:45;;;;;;;;;;;22.40;44.90;;;;;;5067743;28;19956;-58
2022/05/25 08:54:11;;;;;;;;;;;22.40;45.10;;;;;;5067515;28;19927;-58
2022/05/25 08:56:45;;;;;;;;;;;22.40;44.90;;;;;;5073268;28;19916;-57
2022/05/25 08:59:18;;;;;;;;;;;22.40;45.10;;;;;;5071267;28;19912;-57
2022/05/25 09:01:47;;;;;;;;;;;22.30;45.50;;;;;;5065236;28;19916;-58
2022/05/25 09:04:16;;;;;;;;;;;22.30;45.30;;;;;;5069563;28;19922;-58
2022/05/25 09:06:52;;;;;;;;;;;22.30;45.40;;;;;;5069860;28;20062;-57
2022/05/25 09:09:23;;;;;;;;;;;22.30;45.30;;;;;;5066184;28;19919;-56
2022/05/25 09:11:52;;;;;;;;;;;22.30;45.40;;;;;;5067730;28;19908;-58
2022/05/25 09:14:20;;;;;;;;;;;22.30;45.40;;;;;;5073617;28;20372;-57
2022/05/25 09:16:48;;;;;;;;;;;22.20;45.40;;;;;;5075665;28;19915;-57
2022/05/25 09:19:22;;;;;;;;;;;22.30;45.30;;;;;;5072976;28;19916;-57
2022/05/25 09:21:57;;;;;;;;;;;22.20;45.10;;;;;;5071821;28;19912;-57
2022/05/25 09:24:23;;;;;;;;;;;22.20;45.00;;;;;;5072113;28;19916;-58
2022/05/25 09:26:49;;;;;;;;;;;22.30;44.90;;;;;;5070065;28;19946;-57
2022/05/25 09:29:15;;;;;;;;;;;22.30;44.50;;;;;;5071169;28;20358;-56
2022/05/25 09:31:52;;;;;;;;;;;22.20;44.10;;;;;;5075065;28;19916;-57
2022/05/25 09:34:29;;;;;;;;;;;22.20;43.60;;;;;;5069657;28;19919;-55
2022/05/25 09:36:58;;;;;;;;;;;22.20;43.60;;;;;;5077547;28;19912;-58
2022/05/25 09:39:26;;;;;;;;;;;22.20;43.70;;;;;;5070483;28;19975;-57
2022/05/25 09:41:57;;;;;;;;;;;22.20;43.60;;;;;;5072694;28;19990;-58
2022/05/25 09:44:22;;;;;;;;;;;22.20;43.30;;;;;;5070029;28;20372;-58
2022/05/25 09:46:51;;;;;;;;;;;22.10;42.80;;;;;;5070014;28;19989;-57
2022/05/25 09:49:29;;;;;;;;;;;22.10;42.90;;;;;;5068618;28;19916;-57
2022/05/25 09:51:57;;;;;;;;;;;22.00;42.90;;;;;;5072215;28;20019;-57
2022/05/25 09:54:23;;;;;;;;;;;22.00;42.40;;;;;;5065779;28;20465;-58
2022/05/25 09:56:49;;;;;;;;;;;22.00;42.50;;;;;;5068867;28;19919;-58
2022/05/25 09:59:22;;;;;;;;;;;22.00;42.70;;;;;;5073512;28;19944;-58
2022/05/25 10:01:48;;;;;;;;;;;21.90;42.20;;;;;;5066446;28;19916;-58
2022/05/25 10:04:16;;;;;;;;;;;21.90;42.50;;;;;;5074577;28;20368;-57
2022/05/25 10:06:49;;;;;;;;;;;21.90;41.90;;;;;;5071715;28;19908;-56
2022/05/25 10:09:22;;;;;;;;;;;21.90;41.80;;;;;;5077305;28;19916;-58
2022/05/25 10:11:49;;;;;;;;;;;21.80;41.60;;;;;;5078120;28;19920;-57
2022/05/25 10:14:14;;;;;;;;;;;21.80;41.50;;;;;;5078199;28;19920;-57
2022/05/25 10:16:40;;;;;;;;;;;21.80;41.60;;;;;;5082711;28;20556;-57
2022/05/25 10:19:09;;;;;;;;;;;21.80;41.70;;;;;;5078733;28;19916;-57
2022/05/25 10:21:35;;;;;;;;;;;21.80;41.80;;;;;;5082636;28;19919;-57
2022/05/25 10:24:02;;;;;;;;;;;21.80;41.80;;;;;;5084147;28;19946;-58
2022/05/25 10:26:28;;;;;;;;;;;21.80;41.80;;;;;;5079330;28;19951;-57
2022/05/25 10:28:58;;;;;;;;;;;21.80;41.60;;;;;;5084700;28;20339;-56
2022/05/25 10:37:02;;;;;;;;;;;21.80;41.90;;;;;;5078491;28;19912;-58
2022/05/25 10:39:27;;;;;;;;;;;21.80;41.90;;;;;;5082232;28;20714;-58
2022/05/25 10:42:23;;;;;;;;;;;21.80;41.90;;;;;;5080535;28;20078;-56
2022/05/25 10:44:51;;;;;;;;;;;21.80;41.80;;;;;;5028468;28;20400;-58
2022/05/25 10:47:28;;;;;;;;;;;21.80;42.00;;;;;;5080331;28;20011;-58
2022/05/25 10:49:54;;;;;;;;;;;21.80;42.00;;;;;;5079380;28;20421;-58
2022/05/25 10:52:27;;;;;;;;;;;21.80;42.90;;;;;;5074744;28;20675;-57
2022/05/25 10:54:53;;;;;;;;;;;21.80;42.20;;;;;;5077193;28;19912;-57
2022/05/25 10:57:28;;;;;;;;;;;21.80;42.10;;;;;;5074874;28;19916;-56
2022/05/25 10:59:54;;;;;;;;;;;21.80;42.30;;;;;;5075075;28;19947;-58
2022/05/25 11:02:20;;;;;;;;;;;21.90;42.40;;;;;;5069852;28;20002;-58
2022/05/25 11:04:49;;;;;;;;;;;21.90;42.20;;;;;;5073814;28;20271;-58
2022/05/25 11:07:26;;;;;;;;;;;21.90;42.40;;;;;;5071093;28;20002;-59
2022/05/25 11:10:08;;;;;;;;;;;21.90;42.40;;;;;;5075533;28;19912;-57
2022/05/25 11:12:39;;;;;;;;;;;22.00;42.40;;;;;;5072312;28;20483;-58
2022/05/25 11:15:07;;;;;;;;;;;22.00;42.90;;;;;;5069236;28;19961;-57
2022/05/25 11:17:35;;;;;;;;;;;22.00;42.70;;;;;;5073836;28;19935;-58
2022/05/25 11:20:10;;;;;;;;;;;22.00;42.50;;;;;;5070644;28;20259;-58
2022/05/25 11:22:55;;;;;;;;;;;22.00;42.50;;;;;;5067985;28;19916;-58
2022/05/25 11:25:26;;;;;;;;;;;22.00;42.40;;;;;;5075266;28;19916;-58
2022/05/25 11:28:01;;;;;;;;;;;22.00;42.50;;;;;;5074102;28;19927;-59
2022/05/25 11:30:26;;;;;;;;;;;21.90;42.50;;;;;;5073299;28;19916;-59
2022/05/25 11:33:10;;;;;;;;;;;21.90;42.50;;;;;;5078586;28;19938;-57
2022/05/25 11:35:56;;;;;;;;;;;21.90;42.60;;;;;;5073089;28;20218;-57
2022/05/25 11:38:37;;;;;;;;;;;21.90;42.60;;;;;;5070838;28;20431;-58
2022/05/25 11:41:08;;;;;;;;;;;21.90;42.50;;;;;;5070657;28;19966;-57
2022/05/25 11:43:52;;;;;;;;;;;21.90;42.60;;;;;;5072513;28;19916;-56
2022/05/25 11:46:24;;;;;;;;;;;21.90;43.10;;;;;;5076348;28;19912;-56
2022/05/25 11:49:08;;;;;;;;;;;21.90;41.70;;;;;;5073775;28;19916;-59
2022/05/25 11:51:41;;;;;;;;;;;21.90;42.30;;;;;;5063106;28;20014;-59
2022/05/25 11:54:10;;;;;;;;;;;22.00;42.40;;;;;;5066566;28;20015;-58
2022/05/25 11:56:38;;;;;;;;;;;22.00;42.10;;;;;;5066186;28;19911;-58
2022/05/25 11:59:04;;;;;;;;;;;22.00;41.90;;;;;;5062781;28;20457;-58
2022/05/25 12:01:50;;;;;;;;;;;22.00;42.00;;;;;;5066238;28;20006;-57
2022/05/25 12:04:27;;;;;;;;;;;22.10;41.80;;;;;;5075482;28;20009;-59
2022/05/25 12:07:16;;;;;;;;;;;22.10;41.80;;;;;;5076198;28;19912;-60
2022/05/25 12:09:54;;;;;;;;;;;22.10;41.90;;;;;;5064086;28;19927;-57
2022/05/25 12:12:25;;;;;;;;;;;22.10;41.60;;;;;;5072582;28;19926;-57
2022/05/25 12:15:00;;;;;;;;;;;22.10;41.60;;;;;;5072529;28;21561;-57
2022/05/25 12:17:35;;;;;;;;;;;22.10;42.10;;;;;;5071156;28;19946;-57
2022/05/25 12:20:02;;;;;;;;;;;22.10;42.40;;;;;;5072682;28;19923;-57
2022/05/25 12:22:35;;;;;;;;;;;22.00;42.40;;;;;;5052016;28;19958;-57
2022/05/25 12:25:03;;;;;;;;;;;22.10;42.50;;;;;;5076218;28;20277;-57
2022/05/25 12:27:35;;;;;;;;;;;22.10;42.30;;;;;;5072843;28;19927;-59
2022/05/25 12:30:04;;;;;;;;;;;22.00;42.30;;;;;;5076057;28;19912;-59
2022/05/25 12:32:29;;;;;;;;;;;22.10;42.50;;;;;;5073731;28;19916;-58
2022/05/25 12:34:55;;;;;;;;;;;22.00;42.30;;;;;;5072142;28;19908;-58
2022/05/25 12:37:26;;;;;;;;;;;22.00;42.20;;;;;;5071223;28;20541;-59
2022/05/25 12:39:53;;;;;;;;;;;22.00;42.20;;;;;;5072983;28;19923;-59
2022/05/25 12:42:24;;;;;;;;;;;21.90;42.30;;;;;;5071192;28;19923;-57
2022/05/25 12:50:38;;;;;;;;;;;21.90;42.60;;;;;;5071140;28;20010;-58
2022/05/25 12:53:19;;;;;;;;;;;21.90;42.50;;;;;;5061944;28;19920;-57
2022/05/25 12:55:59;;;;;;;;;;;21.90;42.20;;;;;;5070282;28;19919;-56
2022/05/25 12:58:33;;;;;;;;;;;21.90;42.10;;;;;;5071701;28;20504;-58
2022/05/25 13:01:04;;;;;;;;;;;21.90;42.40;;;;;;5064371;28;19912;-58
2022/05/25 13:03:33;;;;;;;;;;;21.90;42.30;;;;;;5059636;28;19938;-59
2022/05/25 13:05:59;;;;;;;;;;;21.80;42.40;;;;;;5066728;28;19943;-57
2022/05/25 13:08:43;;;;;;;;;;;21.80;42.80;;;;;;5066747;28;19912;-58
2022/05/25 13:11:09;;;;;;;;;;;21.80;42.90;;;;;;5069270;28;19916;-58
2022/05/25 13:13:38;;;;;;;;;;;21.80;42.50;;;;;;5066070;28;19989;-58
2022/05/25 13:16:04;;;;;;;;;;;21.80;42.30;;;;;;5072049;28;20387;-56
2022/05/25 13:18:46;;;;;;;;;;;21.80;42.40;;;;;;5071751;28;19922;-58
2022/05/25 13:21:27;;;;;;;;;;;21.80;42.70;;;;;;5073793;28;19908;-58
2022/05/25 13:23:53;;;;;;;;;;;21.80;43.10;;;;;;5067074;28;20038;-57
2022/05/25 13:26:24;;;;;;;;;;;21.80;43.10;;;;;;5067755;28;19985;-59
2022/05/25 13:28:49;;;;;;;;;;;21.90;43.10;;;;;;5073338;28;20441;-59
2022/05/25 13:31:24;;;;;;;;;;;21.90;43.10;;;;;;5073714;28;19959;-57
2022/05/25 13:33:49;;;;;;;;;;;22.00;43.30;;;;;;5070397;28;20674;-57
2022/05/25 13:36:17;;;;;;;;;;;22.00;43.30;;;;;;5067430;28;19912;-57
2022/05/25 13:38:49;;;;;;;;;;;22.10;43.30;;;;;;5073784;28;20422;-58
2022/05/25 13:41:22;;;;;;;;;;;22.20;43.50;;;;;;5062864;28;19952;-57
2022/05/25 13:43:57;;;;;;;;;;;22.20;43.50;;;;;;5072282;28;19912;-58
2022/05/25 13:46:28;;;;;;;;;;;22.30;44.50;;;;;;5066843;28;19916;-58
2022/05/25 13:48:54;;;;;;;;;;;22.40;44.10;;;;;;5073631;28;19951;-57
2022/05/25 13:51:20;;;;;;;;;;;22.40;43.30;;;;;;5071537;28;20128;-56
2022/05/25 13:53:46;;;;;;;;;;;22.40;43.30;;;;;;5074881;28;20068;-57
2022/05/25 13:56:13;;;;;;;;;;;22.50;43.00;;;;;;5071437;28;19916;-57
2022/05/25 13:58:46;;;;;;;;;;;22.50;42.50;;;;;;5076919;28;19919;-57
2022/05/25 14:01:13;;;;;;;;;;;22.50;42.70;;;;;;5077736;28;19912;-57
2022/05/25 14:03:42;;;;;;;;;;;22.50;42.50;;;;;;5081277;28;20007;-58
2022/05/25 14:06:13;;;;;;;;;;;22.60;42.40;;;;;;5077861;28;19916;-59
2022/05/25 14:11:24;;;;;;;;;;;22.70;42.50;;;;;;5077641;28;19934;-58
2022/05/25 14:13:49;;;;;;;;;;;22.70;42.00;;;;;;5082318;28;19916;-58
2022/05/25 14:16:17;;;;;;;;;;;22.70;42.30;;;;;;5077545;28;19911;-59
2022/05/25 14:18:46;;;;;;;;;;;22.80;42.60;;;;;;5080776;28;19916;-58
2022/05/25 14:21:30;;;;;;;;;;;22.80;43.80;;;;;;5077235;28;19965;-57
2022/05/25 14:23:56;;;;;;;;;;;22.70;44.00;;;;;;5073990;28;19916;-59
2022/05/25 14:26:26;;;;;;;;;;;22.70;43.90;;;;;;5059637;28;20799;-58
2022/05/25 14:28:52;;;;;;;;;;;22.70;43.50;;;;;;5077226;28;19954;-58
2022/05/25 14:31:22;;;;;;;;;;;22.70;43.70;;;;;;5078731;28;20018;-57
2022/05/25 14:33:48;;;;;;;;;;;22.70;42.50;;;;;;5079222;28;19928;-56
2022/05/25 14:36:19;;;;;;;;;;;22.60;41.80;;;;;;5078136;28;19908;-56
2022/05/25 14:38:44;;;;;;;;;;;22.60;42.20;;;;;;5076651;28;20018;-56
2022/05/25 14:41:24;;;;;;;;;;;22.60;42.20;;;;;;5075806;28;19981;-60
2022/05/25 14:43:50;;;;;;;;;;;22.60;42.20;;;;;;5078912;28;19912;-59
2022/05/25 14:46:21;;;;;;;;;;;22.60;42.80;;;;;;5073681;28;19915;-57
2022/05/25 14:48:48;;;;;;;;;;;22.60;42.60;;;;;;5079920;28;19923;-58
2022/05/25 14:51:17;;;;;;;;;;;22.60;42.70;;;;;;5081021;28;20081;-58
2022/05/25 14:53:43;;;;;;;;;;;22.60;42.30;;;;;;5078703;28;19916;-56